createdAt,value
2022-09-07T00:01:34.548Z,41.20
2022-09-07T00:04:04.220Z,41.30
2022-09-07T00:06:34.701Z,41.40
2022-09-07T00:09:04.791Z,41.50
2022-09-07T00:11:33.913Z,41.30
2022-09-07T00:14:04.450Z,41.40
2022-09-07T00:16:33.734Z,41.40
2022-09-07T00:19:05.584Z,41.70
2022-09-07T00:21:34.934Z,41.60
2022-09-07T00:24:04.866Z,41.80
2022-09-07T00:26:34.042Z,41.70
2022-09-07T00:29:08.057Z,41.70
2022-09-07T00:31:37.482Z,41.80
2022-09-07T00:34:07.587Z,41.80
2022-09-07T00:36:36.606Z,41.70
2022-09-07T00:39:06.267Z,41.70
2022-09-07T00:41:35.553Z,41.90
2022-09-07T00:45:11.213Z,41.80
2022-09-07T00:47:51.237Z,42.00
2022-09-07T00:50:28.675Z,41.90
2022-09-07T00:53:04.542Z,42.00
2022-09-07T00:55:36.370Z,41.90
2022-09-07T00:58:08.192Z,41.80
2022-09-07T01:00:37.779Z,41.90
2022-09-07T01:03:09.844Z,41.90
2022-09-07T01:05:47.232Z,42.70
2022-09-07T01:08:17.505Z,41.90
2022-09-07T01:10:46.956Z,41.90
2022-09-07T01:13:16.254Z,41.90
2022-09-07T01:16:08.979Z,42.10
2022-09-07T01:18:53.703Z,42.10
2022-09-07T01:21:27.397Z,42.20
2022-09-07T01:24:39.134Z,42.30
2022-09-07T01:28:00.668Z,42.00
2022-09-07T01:30:32.793Z,42.10
2022-09-07T01:33:42.002Z,42.20
2022-09-07T01:36:27.037Z,42.30
2022-09-07T01:39:01.361Z,42.20
2022-09-07T01:41:41.207Z,42.30
2022-09-07T01:44:19.333Z,42.30
2022-09-07T01:46:55.796Z,42.50
2022-09-07T01:49:31.688Z,42.60
2022-09-07T01:52:08.779Z,42.80
2022-09-07T01:54:46.665Z,42.80
2022-09-07T01:57:26.333Z,42.90
2022-09-07T02:00:06.636Z,42.90
2022-09-07T02:02:49.953Z,43.10
2022-09-07T02:05:24.328Z,43.10
2022-09-07T02:08:02.070Z,43.30
2022-09-07T02:10:40.378Z,43.20
2022-09-07T02:13:16.260Z,43.30
2022-09-07T02:15:53.841Z,43.40
2022-09-07T02:18:25.952Z,43.40
2022-09-07T02:21:01.202Z,43.40
2022-09-07T02:23:39.387Z,43.40
2022-09-07T02:26:17.082Z,43.40
2022-09-07T02:28:46.197Z,43.40
2022-09-07T02:31:17.113Z,43.40
2022-09-07T02:33:46.430Z,43.60
2022-09-07T02:36:19.665Z,43.60
2022-09-07T02:38:48.922Z,43.60
2022-09-07T02:41:36.511Z,43.60
2022-09-07T02:44:09.954Z,43.80
2022-09-07T02:47:00.078Z,43.70
2022-09-07T02:49:55.374Z,43.70
2022-09-07T02:52:44.985Z,43.80
2022-09-07T02:55:32.756Z,43.80
2022-09-07T02:58:22.650Z,43.80
2022-09-07T03:01:03.752Z,43.80
2022-09-07T03:03:48.164Z,43.80
2022-09-07T03:06:27.473Z,43.80
2022-09-07T03:09:00.527Z,44.60
2022-09-07T03:11:30.975Z,43.90
2022-09-07T03:14:14.804Z,43.90
2022-09-07T03:16:44.524Z,44.00
2022-09-07T03:19:14.450Z,44.10
2022-09-07T03:21:43.297Z,44.10
2022-09-07T03:24:12.054Z,44.20
2022-09-07T03:26:44.914Z,44.20
2022-09-07T03:29:14.370Z,44.20
2022-09-07T03:31:42.998Z,44.30
2022-09-07T03:34:12.679Z,44.60
2022-09-07T03:36:42.850Z,44.60
2022-09-07T03:39:14.013Z,44.70
2022-09-07T03:41:42.827Z,44.80
2022-09-07T03:44:12.149Z,44.60
2022-09-07T03:46:40.668Z,44.80
2022-09-07T03:49:09.592Z,44.80
2022-09-07T03:51:38.162Z,44.80
2022-09-07T03:54:08.645Z,44.90
2022-09-07T03:56:37.530Z,45.00
2022-09-07T03:59:06.093Z,45.00
2022-09-07T04:01:34.843Z,45.10
2022-09-07T04:04:03.972Z,45.90
2022-09-07T04:06:33.240Z,45.20
2022-09-07T04:09:04.604Z,45.40
2022-09-07T04:11:35.853Z,45.30
2022-09-07T04:14:04.948Z,45.30
2022-09-07T04:16:34.279Z,45.30
2022-09-07T04:19:02.949Z,45.40
2022-09-07T04:21:34.196Z,45.30
2022-09-07T04:24:03.308Z,45.30
2022-09-07T04:26:37.106Z,45.30
2022-09-07T04:29:06.477Z,45.20
2022-09-07T04:31:35.580Z,45.30
2022-09-07T04:34:06.073Z,45.30
2022-09-07T04:36:35.421Z,45.40
2022-09-07T04:39:06.431Z,45.30
2022-09-07T04:41:36.331Z,45.50
2022-09-07T04:44:05.995Z,45.70
2022-09-07T04:46:36.853Z,45.60
2022-09-07T04:49:08.353Z,45.60
2022-09-07T04:51:39.639Z,45.40
2022-09-07T04:54:08.432Z,45.40
2022-09-07T04:56:38.757Z,45.50
2022-09-07T04:59:07.525Z,45.50
2022-09-07T05:01:36.421Z,45.30
2022-09-07T05:04:06.162Z,45.00
2022-09-07T05:06:34.912Z,44.90
2022-09-07T05:09:03.804Z,45.20
2022-09-07T05:11:32.402Z,44.90
2022-09-07T05:14:05.272Z,45.00
2022-09-07T05:16:34.136Z,45.00
2022-09-07T05:19:05.859Z,44.60
2022-09-07T05:21:36.184Z,44.50
2022-09-07T05:24:05.832Z,44.50
2022-09-07T05:26:39.845Z,44.30
2022-09-07T05:31:59.818Z,44.60
2022-09-07T05:37:03.068Z,44.40
2022-09-07T05:39:33.433Z,44.00
2022-09-07T05:42:02.126Z,44.00
2022-09-07T05:44:47.389Z,44.80
2022-09-07T05:47:16.318Z,43.50
2022-09-07T05:49:44.893Z,43.90
2022-09-07T05:52:13.494Z,43.60
2022-09-07T05:54:42.348Z,43.10
2022-09-07T05:57:13.586Z,43.40
2022-09-07T05:59:43.500Z,42.50
2022-09-07T06:02:15.941Z,42.20
2022-09-07T06:04:44.701Z,42.00
2022-09-07T06:07:23.017Z,42.10
2022-09-07T06:12:43.375Z,41.30
2022-09-07T06:15:15.692Z,41.40
2022-09-07T06:17:44.800Z,41.20
2022-09-07T06:20:13.832Z,41.20
2022-09-07T06:22:42.657Z,41.20
2022-09-07T06:25:11.363Z,41.30
2022-09-07T06:27:40.038Z,40.50
2022-09-07T06:30:10.316Z,40.40
2022-09-07T06:35:15.829Z,40.80
2022-09-07T06:37:45.310Z,40.60
2022-09-07T06:40:14.148Z,40.90
2022-09-07T06:42:42.795Z,40.10
2022-09-07T06:45:12.930Z,39.90
2022-09-07T06:47:43.007Z,40.30
2022-09-07T06:50:12.987Z,39.00
2022-09-07T06:55:30.345Z,38.20
2022-09-07T06:57:59.112Z,37.30
2022-09-07T07:00:28.050Z,36.80
2022-09-07T07:02:58.124Z,36.40
2022-09-07T07:05:26.921Z,35.60
2022-09-07T07:07:56.425Z,34.90
2022-09-07T07:10:25.346Z,34.10
2022-09-07T07:12:58.001Z,33.40
2022-09-07T07:15:29.414Z,32.30
2022-09-07T07:18:09.524Z,30.90
2022-09-07T07:20:48.145Z,30.10
2022-09-07T07:23:16.986Z,29.20
2022-09-07T07:25:45.521Z,28.40
2022-09-07T07:31:09.941Z,27.80
2022-09-07T07:33:42.795Z,27.30
2022-09-07T07:36:14.699Z,27.20
2022-09-07T07:39:01.912Z,26.70
2022-09-07T07:44:22.221Z,25.80
2022-09-07T07:46:51.828Z,26.10
2022-09-07T07:49:21.936Z,25.70
2022-09-07T07:54:39.483Z,25.00
2022-09-07T07:57:08.187Z,25.60
2022-09-07T07:59:37.182Z,25.20
2022-09-07T08:02:08.437Z,25.50
2022-09-07T08:04:38.624Z,24.50
2022-09-07T08:07:10.578Z,24.40
2022-09-07T08:09:41.532Z,24.10
2022-09-07T08:12:13.270Z,24.00
2022-09-07T08:14:42.355Z,23.80
2022-09-07T08:17:13.648Z,24.10
2022-09-07T08:19:44.152Z,23.70
2022-09-07T08:22:13.927Z,24.40
2022-09-07T08:24:42.506Z,24.20
2022-09-07T08:27:11.187Z,24.40
2022-09-07T08:29:40.066Z,24.10
2022-09-07T08:32:08.651Z,23.80
2022-09-07T08:34:38.193Z,23.70
2022-09-07T08:37:09.849Z,23.10
2022-09-07T08:39:38.415Z,23.10
2022-09-07T08:42:42.006Z,23.00
2022-09-07T08:45:17.024Z,22.80
2022-09-07T08:47:51.271Z,22.70
2022-09-07T08:50:24.963Z,22.60
2022-09-07T08:53:02.434Z,22.70
2022-09-07T08:55:36.813Z,22.20
2022-09-07T08:58:27.042Z,22.00
2022-09-07T09:06:52.516Z,22.00
2022-09-07T09:09:34.694Z,23.00
2022-09-07T09:12:18.796Z,22.70
2022-09-07T09:15:10.272Z,22.00
2022-09-07T09:17:47.557Z,21.80
2022-09-07T09:20:26.944Z,22.00
2022-09-07T09:23:06.097Z,21.30
2022-09-07T09:25:40.151Z,21.70
2022-09-07T09:28:13.473Z,21.30
2022-09-07T09:30:42.887Z,21.00
2022-09-07T09:33:18.748Z,20.90
2022-09-07T09:35:50.967Z,20.70
2022-09-07T09:38:43.631Z,20.70
2022-09-07T09:41:15.992Z,20.90
2022-09-07T09:43:53.028Z,20.40
2022-09-07T09:46:28.417Z,20.60
2022-09-07T09:49:01.217Z,20.60
2022-09-07T09:54:33.601Z,20.90
2022-09-07T09:57:03.651Z,20.50
2022-09-07T10:05:28.385Z,20.00
2022-09-07T10:07:57.871Z,20.00
2022-09-07T10:10:28.514Z,19.90
2022-09-07T10:12:59.228Z,19.80
2022-09-07T10:15:39.927Z,20.10
2022-09-07T10:18:22.858Z,20.30
2022-09-07T10:20:51.568Z,20.50
2022-09-07T10:23:25.411Z,20.90
2022-09-07T10:25:54.185Z,20.60
2022-09-07T10:29:06.249Z,20.40
2022-09-07T10:31:24.135Z,20.40
2022-09-07T10:37:04.454Z,21.10
2022-09-07T10:39:37.589Z,21.00
2022-09-07T10:42:26.056Z,21.50
2022-09-07T10:45:10.309Z,21.60
2022-09-07T10:47:55.917Z,21.50
2022-09-07T10:50:32.752Z,21.40
2022-09-07T10:53:43.748Z,21.80
2022-09-07T10:56:18.664Z,21.70
2022-09-07T10:59:07.237Z,22.20
2022-09-07T11:01:56.532Z,22.70
2022-09-07T11:04:46.951Z,22.60
2022-09-07T11:07:35.206Z,22.10
2022-09-07T11:10:20.554Z,22.80
2022-09-07T11:12:53.157Z,22.90
2022-09-07T11:15:28.883Z,23.30
2022-09-07T11:18:07.672Z,22.80
2022-09-07T11:20:44.507Z,22.40
2022-09-07T11:23:21.540Z,22.50
2022-09-07T11:26:03.361Z,22.50
2022-09-07T11:28:47.147Z,23.50
2022-09-07T11:31:27.195Z,22.90
2022-09-07T11:37:04.237Z,23.30
2022-09-07T11:39:41.877Z,23.60
2022-09-07T11:45:23.110Z,23.50
2022-09-07T11:48:02.210Z,23.70
2022-09-07T11:50:41.877Z,23.60
2022-09-07T11:53:19.179Z,23.50
2022-09-07T11:55:55.875Z,24.00
2022-09-07T11:58:57.327Z,24.30
2022-09-07T12:01:42.202Z,24.40
2022-09-07T12:05:00.406Z,24.10
2022-09-07T12:07:59.779Z,24.40
2022-09-07T12:10:53.533Z,24.20
2022-09-07T12:13:49.422Z,23.80
2022-09-07T12:16:34.691Z,24.40
2022-09-07T12:19:20.328Z,24.50
2022-09-07T12:21:57.851Z,24.80
2022-09-07T12:24:45.830Z,24.70
2022-09-07T12:27:40.461Z,25.00
2022-09-07T12:30:50.382Z,24.70
2022-09-07T12:33:33.047Z,25.10
2022-09-07T12:36:03.322Z,25.60
2022-09-07T12:39:20.936Z,25.70
2022-09-07T12:44:44.038Z,26.40
2022-09-07T12:47:31.543Z,25.60
2022-09-07T12:50:28.437Z,25.80
2022-09-07T12:53:29.850Z,25.30
2022-09-07T12:56:33.550Z,25.80
2022-09-07T12:59:40.403Z,25.70
2022-09-07T13:03:00.247Z,24.90
2022-09-07T13:05:54.590Z,25.40
2022-09-07T13:08:53.460Z,25.10
2022-09-07T13:11:35.599Z,26.30
2022-09-07T13:14:09.430Z,25.80
2022-09-07T13:20:07.661Z,25.30
2022-09-07T13:22:56.906Z,25.20
2022-09-07T13:25:54.542Z,25.30
2022-09-07T13:28:41.994Z,26.00
2022-09-07T13:31:49.574Z,25.50
2022-09-07T13:34:51.444Z,25.40
2022-09-07T13:37:24.487Z,25.50
2022-09-07T13:39:58.624Z,25.50
2022-09-07T13:42:31.573Z,25.40
2022-09-07T13:45:03.714Z,25.40
2022-09-07T13:47:59.138Z,25.50
2022-09-07T13:50:42.995Z,25.60
2022-09-07T13:53:43.778Z,25.40
2022-09-07T13:56:30.163Z,25.50
2022-09-07T13:58:59.178Z,25.60
2022-09-07T14:01:29.963Z,26.00
2022-09-07T14:04:07.386Z,25.80
2022-09-07T14:06:38.197Z,25.70
2022-09-07T14:09:15.421Z,25.40
2022-09-07T14:11:47.398Z,25.70
2022-09-07T14:14:20.216Z,25.70
2022-09-07T14:16:55.366Z,25.60
2022-09-07T14:19:32.892Z,25.50
2022-09-07T14:22:04.171Z,25.20
2022-09-07T14:24:38.094Z,25.70
2022-09-07T14:27:20.544Z,25.60
2022-09-07T14:29:49.511Z,25.30
2022-09-07T14:32:23.495Z,25.40
2022-09-07T14:34:53.609Z,24.70
2022-09-07T14:37:24.303Z,25.00
2022-09-07T14:39:54.521Z,25.00
2022-09-07T14:42:25.544Z,25.00
2022-09-07T14:45:20.374Z,25.40
2022-09-07T14:47:53.678Z,25.40
2022-09-07T14:50:30.902Z,25.50
2022-09-07T14:56:04.168Z,25.60
2022-09-07T14:58:33.566Z,25.60
2022-09-07T15:04:20.265Z,25.20
2022-09-07T15:07:05.580Z,25.70
2022-09-07T15:09:39.257Z,25.20
2022-09-07T15:12:27.331Z,25.30
2022-09-07T15:15:21.772Z,25.40
2022-09-07T15:17:50.676Z,25.80
2022-09-07T15:20:40.935Z,25.90
2022-09-07T15:23:16.664Z,25.40
2022-09-07T15:25:51.191Z,26.10
2022-09-07T15:34:13.938Z,25.00
2022-09-07T15:36:45.225Z,25.00
2022-09-07T15:39:21.134Z,25.10
2022-09-07T15:41:51.603Z,26.00
2022-09-07T15:44:24.890Z,25.50
2022-09-07T15:49:50.012Z,25.70
2022-09-07T15:52:20.022Z,25.90
2022-09-07T15:54:49.939Z,26.10
2022-09-07T16:00:09.070Z,26.10
2022-09-07T16:05:32.700Z,26.40
2022-09-07T16:10:55.201Z,26.40
2022-09-07T16:13:24.975Z,26.60
2022-09-07T16:15:54.140Z,26.60
2022-09-07T16:18:23.196Z,27.00
2022-09-07T16:20:53.238Z,27.50
2022-09-07T16:23:22.129Z,28.00
2022-09-07T16:26:00.404Z,27.80
2022-09-07T16:28:30.636Z,27.50
2022-09-07T16:31:00.087Z,27.60
2022-09-07T16:33:35.920Z,28.30
2022-09-07T16:36:09.369Z,28.50
2022-09-07T16:38:47.054Z,28.40
2022-09-07T16:41:20.309Z,29.10
2022-09-07T16:43:50.924Z,29.50
2022-09-07T16:46:21.797Z,29.60
2022-09-07T16:48:52.387Z,29.50
2022-09-07T16:51:23.299Z,29.50
2022-09-07T16:53:55.099Z,30.00
2022-09-07T16:56:27.933Z,29.80
2022-09-07T16:58:59.812Z,30.00
2022-09-07T17:01:32.546Z,30.00
2022-09-07T17:04:05.534Z,30.20
2022-09-07T17:06:39.547Z,30.10
2022-09-07T17:09:09.024Z,30.90
2022-09-07T17:11:39.449Z,31.00
2022-09-07T17:14:08.443Z,30.60
2022-09-07T17:16:40.897Z,30.90
2022-09-07T17:22:01.734Z,31.40
2022-09-07T17:24:32.338Z,31.60
2022-09-07T17:27:03.383Z,31.70
2022-09-07T17:29:37.204Z,31.20
2022-09-07T17:34:56.227Z,33.20
2022-09-07T17:37:25.693Z,33.80
2022-09-07T17:39:54.509Z,33.70
2022-09-07T17:43:38.663Z,33.10
2022-09-07T17:45:17.064Z,33.00
2022-09-07T17:47:45.969Z,33.30
2022-09-07T17:50:14.532Z,33.20
2022-09-07T17:52:45.947Z,33.10
2022-09-07T17:55:15.083Z,33.70
2022-09-07T17:57:44.968Z,34.30
2022-09-07T18:00:15.471Z,34.00
2022-09-07T18:02:44.262Z,33.90
2022-09-07T18:05:12.815Z,33.80
2022-09-07T18:07:41.448Z,33.70
2022-09-07T18:10:11.050Z,33.70
2022-09-07T18:12:39.816Z,33.30
2022-09-07T18:15:10.894Z,34.00
2022-09-07T18:17:40.096Z,34.20
2022-09-07T18:20:09.882Z,34.40
2022-09-07T18:22:38.420Z,34.20
2022-09-07T18:25:10.244Z,34.60
2022-09-07T18:27:40.415Z,34.60
2022-09-07T18:30:13.875Z,34.90
2022-09-07T18:32:42.911Z,34.70
2022-09-07T18:35:12.002Z,34.40
2022-09-07T18:37:40.570Z,34.60
2022-09-07T18:40:10.644Z,34.20
2022-09-07T18:42:40.521Z,34.10
2022-09-07T18:45:28.136Z,34.40
2022-09-07T18:47:57.112Z,34.50
2022-09-07T18:50:26.461Z,33.90
2022-09-07T18:53:03.965Z,33.80
2022-09-07T18:55:42.967Z,33.60
2022-09-07T18:58:11.552Z,33.40
2022-09-07T19:00:46.232Z,33.30
2022-09-07T19:03:16.687Z,33.60
2022-09-07T19:05:50.006Z,33.30
2022-09-07T19:08:19.216Z,33.70
2022-09-07T19:10:47.870Z,33.50
2022-09-07T19:13:16.478Z,33.70
2022-09-07T19:15:46.571Z,33.80
2022-09-07T19:18:15.171Z,33.50
2022-09-07T19:20:43.699Z,33.40
2022-09-07T19:23:12.486Z,33.40
2022-09-07T19:25:42.380Z,34.40
2022-09-07T19:28:10.919Z,33.50
2022-09-07T19:30:39.870Z,33.60
2022-09-07T19:33:12.114Z,33.10
2022-09-07T19:35:40.849Z,33.90
2022-09-07T19:38:09.669Z,33.50
2022-09-07T19:40:38.393Z,33.60
2022-09-07T19:43:07.383Z,33.60
2022-09-07T19:45:40.528Z,33.60
2022-09-07T19:48:10.814Z,33.50
2022-09-07T19:50:39.478Z,34.00
2022-09-07T19:53:08.089Z,33.50
2022-09-07T19:55:36.942Z,34.50
2022-09-07T19:58:05.543Z,34.10
2022-09-07T20:00:34.314Z,33.80
2022-09-07T20:03:03.111Z,34.20
2022-09-07T20:05:33.113Z,34.30
2022-09-07T20:08:01.680Z,33.80
2022-09-07T20:10:32.355Z,33.60
2022-09-07T20:13:01.413Z,33.30
2022-09-07T20:15:30.661Z,33.30
2022-09-07T20:17:59.479Z,33.40
2022-09-07T20:20:27.992Z,33.00
2022-09-07T20:22:57.840Z,33.20
2022-09-07T20:25:26.840Z,33.40
2022-09-07T20:27:55.439Z,33.30
2022-09-07T20:30:25.240Z,33.40
2022-09-07T20:32:54.023Z,32.90
2022-09-07T20:35:23.017Z,33.00
2022-09-07T20:37:51.573Z,33.10
2022-09-07T20:40:21.716Z,33.80
2022-09-07T20:42:50.341Z,33.30
2022-09-07T20:45:19.294Z,33.20
2022-09-07T20:47:48.202Z,33.10
2022-09-07T20:50:16.868Z,33.20
2022-09-07T20:52:45.503Z,33.20
2022-09-07T20:55:14.275Z,33.30
2022-09-07T20:57:44.202Z,33.40
2022-09-07T21:00:13.477Z,33.30
2022-09-07T21:02:42.264Z,33.60
2022-09-07T21:05:11.564Z,33.20
2022-09-07T21:07:40.862Z,33.30
2022-09-07T21:10:10.828Z,33.50
2022-09-07T21:12:39.403Z,33.30
2022-09-07T21:15:10.943Z,33.50
2022-09-07T21:17:39.744Z,33.20
2022-09-07T21:20:08.801Z,33.60
2022-09-07T21:22:37.349Z,33.70
2022-09-07T21:25:07.252Z,33.40
2022-09-07T21:27:38.690Z,33.70
2022-09-07T21:30:10.541Z,33.50
2022-09-07T21:32:40.424Z,33.90
2022-09-07T21:35:11.129Z,33.70
2022-09-07T21:37:39.762Z,34.10
2022-09-07T21:40:09.787Z,33.90
2022-09-07T21:42:39.095Z,33.90
2022-09-07T21:45:10.437Z,34.10
2022-09-07T21:47:39.559Z,34.10
2022-09-07T21:50:09.032Z,34.50
2022-09-07T21:52:38.783Z,34.70
2022-09-07T21:55:09.080Z,34.40
2022-09-07T21:57:38.221Z,34.40
2022-09-07T22:00:11.966Z,34.70
2022-09-07T22:02:40.748Z,35.40
2022-09-07T22:05:10.248Z,34.40
2022-09-07T22:07:38.772Z,34.70
2022-09-07T22:10:09.587Z,34.80
2022-09-07T22:12:38.088Z,34.90
2022-09-07T22:15:09.348Z,34.80
2022-09-07T22:17:38.172Z,34.80
2022-09-07T22:20:08.674Z,35.20
2022-09-07T22:22:37.181Z,35.00
2022-09-07T22:25:06.748Z,35.40
2022-09-07T22:27:35.249Z,35.20
2022-09-07T22:30:03.946Z,35.90
2022-09-07T22:32:34.059Z,35.20
2022-09-07T22:35:02.588Z,35.10
2022-09-07T22:37:31.608Z,35.50
2022-09-07T22:40:00.427Z,35.40
2022-09-07T22:42:29.035Z,35.40
2022-09-07T22:44:59.028Z,35.30
2022-09-07T22:47:27.810Z,35.20
2022-09-07T22:49:57.650Z,35.20
2022-09-07T22:52:26.244Z,35.60
2022-09-07T22:54:55.004Z,35.40
2022-09-07T22:57:23.484Z,35.60
2022-09-07T22:59:52.457Z,35.80
2022-09-07T23:02:21.177Z,35.80
2022-09-07T23:04:49.930Z,35.60
2022-09-07T23:07:19.966Z,35.60
2022-09-07T23:09:48.705Z,35.90
2022-09-07T23:12:17.172Z,36.00
2022-09-07T23:14:45.709Z,35.90
2022-09-07T23:17:14.576Z,36.20
2022-09-07T23:19:44.047Z,36.20
2022-09-07T23:22:12.576Z,36.30
2022-09-07T23:24:42.634Z,36.30
2022-09-07T23:27:11.152Z,36.30
2022-09-07T23:29:39.640Z,36.40
2022-09-07T23:32:08.373Z,36.90
2022-09-07T23:34:37.753Z,36.50
2022-09-07T23:37:06.374Z,36.70
2022-09-07T23:39:35.130Z,37.00
2022-09-07T23:42:05.349Z,36.60
2022-09-07T23:44:33.892Z,36.90
2022-09-07T23:47:02.734Z,37.20
2022-09-07T23:49:31.376Z,36.80
2022-09-07T23:52:00.950Z,37.10
2022-09-07T23:54:29.765Z,37.00
2022-09-07T23:56:58.416Z,36.90
2022-09-07T23:59:28.254Z,37.00
